sensor_id;sensor_type;location;lat;lon;timestamp;P1;durP1;ratioP1;P2;durP2;ratioP2
11191;SDS011;5652;48.406;10.820;2024-03-23T00:53:18;5.50;;;4.15;;
11191;SDS011;5652;48.406;10.820;2024-03-23T00:55:44;6.13;;;4.10;;
11191;SDS011;5652;48.406;10.820;2024-03-23T00:58:12;6.10;;;4.50;;
11191;SDS011;5652;48.406;10.820;2024-03-23T01:00:38;5.32;;;4.32;;
11191;SDS011;5652;48.406;10.820;2024-03-23T01:03:05;7.80;;;4.50;;
11191;SDS011;5652;48.406;10.820;2024-03-23T01:05:31;6.22;;;4.50;;
11191;SDS011;5652;48.406;10.820;2024-03-23T01:07:58;5.00;;;4.18;;
11191;SDS011;5652;48.406;10.820;2024-03-23T01:10:25;5.03;;;4.15;;
11191;SDS011;5652;48.406;10.820;2024-03-23T01:12:52;5.43;;;4.57;;
11191;SDS011;5652;48.406;10.820;2024-03-23T01:15:19;6.53;;;4.18;;
11191;SDS011;5652;48.406;10.820;2024-03-23T01:17:46;6.50;;;3.92;;
11191;SDS011;5652;48.406;10.820;2024-03-23T01:20:12;6.32;;;4.22;;
11191;SDS011;5652;48.406;10.820;2024-03-23T01:22:39;5.63;;;4.47;;
11191;SDS011;5652;48.406;10.820;2024-03-23T01:25:05;6.45;;;4.65;;
11191;SDS011;5652;48.406;10.820;2024-03-23T01:27:34;6.47;;;4.55;;
11191;SDS011;5652;48.406;10.820;2024-03-23T01:30:00;5.57;;;4.35;;
11191;SDS011;5652;48.406;10.820;2024-03-23T01:32:27;6.25;;;4.30;;
11191;SDS011;5652;48.406;10.820;2024-03-23T01:34:53;6.75;;;4.90;;
11191;SDS011;5652;48.406;10.820;2024-03-23T01:37:20;5.33;;;4.40;;
11191;SDS011;5652;48.406;10.820;2024-03-23T01:39:46;5.40;;;4.70;;
11191;SDS011;5652;48.406;10.820;2024-03-23T01:42:14;5.80;;;4.50;;
11191;SDS011;5652;48.406;10.820;2024-03-23T01:44:41;5.40;;;4.63;;
11191;SDS011;5652;48.406;10.820;2024-03-23T01:47:08;6.57;;;4.57;;
11191;SDS011;5652;48.406;10.820;2024-03-23T01:49:34;5.95;;;5.07;;
11191;SDS011;5652;48.406;10.820;2024-03-23T01:52:02;6.68;;;4.65;;
11191;SDS011;5652;48.406;10.820;2024-03-23T01:54:28;6.18;;;4.80;;
11191;SDS011;5652;48.406;10.820;2024-03-23T01:56:56;6.07;;;5.38;;
11191;SDS011;5652;48.406;10.820;2024-03-23T01:59:22;7.10;;;5.43;;
11191;SDS011;5652;48.406;10.820;2024-03-23T02:01:52;6.25;;;5.35;;
11191;SDS011;5652;48.406;10.820;2024-03-23T02:04:18;8.75;;;5.60;;
11191;SDS011;5652;48.406;10.820;2024-03-23T02:06:45;6.10;;;5.50;;
11191;SDS011;5652;48.406;10.820;2024-03-23T02:09:11;6.77;;;6.07;;
11191;SDS011;5652;48.406;10.820;2024-03-23T02:11:38;7.43;;;6.32;;
11191;SDS011;5652;48.406;10.820;2024-03-23T02:14:04;6.40;;;5.80;;
11191;SDS011;5652;48.406;10.820;2024-03-23T02:16:32;8.00;;;5.20;;
11191;SDS011;5652;48.406;10.820;2024-03-23T02:19:00;6.63;;;5.05;;
11191;SDS011;5652;48.406;10.820;2024-03-23T02:21:27;5.90;;;4.80;;
11191;SDS011;5652;48.406;10.820;2024-03-23T02:23:58;6.82;;;4.95;;
11191;SDS011;5652;48.406;10.820;2024-03-23T02:26:25;5.68;;;4.88;;
11191;SDS011;5652;48.406;10.820;2024-03-23T02:28:51;6.43;;;4.80;;
11191;SDS011;5652;48.406;10.820;2024-03-23T02:31:18;5.53;;;4.90;;
11191;SDS011;5652;48.406;10.820;2024-03-23T02:33:44;8.05;;;5.97;;
11191;SDS011;5652;48.406;10.820;2024-03-23T02:36:13;7.07;;;5.73;;
11191;SDS011;5652;48.406;10.820;2024-03-23T02:38:40;7.68;;;6.50;;
11191;SDS011;5652;48.406;10.820;2024-03-23T02:41:08;6.72;;;5.85;;
11191;SDS011;5652;48.406;10.820;2024-03-23T02:43:35;5.38;;;4.88;;
11191;SDS011;5652;48.406;10.820;2024-03-23T02:46:01;5.60;;;5.10;;
11191;SDS011;5652;48.406;10.820;2024-03-23T02:48:29;5.65;;;5.00;;
11191;SDS011;5652;48.406;10.820;2024-03-23T02:50:55;4.88;;;4.32;;
11191;SDS011;5652;48.406;10.820;2024-03-23T02:53:22;7.38;;;5.68;;
11191;SDS011;5652;48.406;10.820;2024-03-23T02:55:48;8.93;;;7.32;;
11191;SDS011;5652;48.406;10.820;2024-03-23T02:58:17;7.70;;;5.53;;
11191;SDS011;5652;48.406;10.820;2024-03-23T03:00:43;5.73;;;3.97;;
11191;SDS011;5652;48.406;10.820;2024-03-23T03:03:10;4.60;;;3.70;;
11191;SDS011;5652;48.406;10.820;2024-03-23T03:05:36;5.07;;;4.10;;
11191;SDS011;5652;48.406;10.820;2024-03-23T03:08:03;4.78;;;4.00;;
11191;SDS011;5652;48.406;10.820;2024-03-23T03:10:30;5.40;;;4.15;;
11191;SDS011;5652;48.406;10.820;2024-03-23T03:12:59;5.68;;;4.10;;
11191;SDS011;5652;48.406;10.820;2024-03-23T03:15:27;5.50;;;4.00;;
11191;SDS011;5652;48.406;10.820;2024-03-23T03:17:54;5.70;;;3.65;;
11191;SDS011;5652;48.406;10.820;2024-03-23T03:20:20;4.77;;;3.80;;
11191;SDS011;5652;48.406;10.820;2024-03-23T03:22:48;4.75;;;3.40;;
11191;SDS011;5652;48.406;10.820;2024-03-23T03:25:14;4.35;;;3.30;;
11191;SDS011;5652;48.406;10.820;2024-03-23T03:27:41;4.22;;;3.20;;
11191;SDS011;5652;48.406;10.820;2024-03-23T03:30:08;4.20;;;3.20;;
11191;SDS011;5652;48.406;10.820;2024-03-23T03:32:37;3.43;;;2.97;;
11191;SDS011;5652;48.406;10.820;2024-03-23T03:35:03;4.40;;;3.33;;
11191;SDS011;5652;48.406;10.820;2024-03-23T03:37:30;5.20;;;3.30;;
11191;SDS011;5652;48.406;10.820;2024-03-23T03:39:56;4.95;;;4.13;;
11191;SDS011;5652;48.406;10.820;2024-03-23T03:42:23;4.30;;;3.00;;
11191;SDS011;5652;48.406;10.820;2024-03-23T03:44:50;6.05;;;3.13;;
11191;SDS011;5652;48.406;10.820;2024-03-23T03:47:18;4.63;;;2.72;;
11191;SDS011;5652;48.406;10.820;2024-03-23T03:49:47;4.07;;;2.73;;
11191;SDS011;5652;48.406;10.820;2024-03-23T03:52:14;3.75;;;2.63;;
11191;SDS011;5652;48.406;10.820;2024-03-23T03:54:40;3.35;;;2.47;;
11191;SDS011;5652;48.406;10.820;2024-03-23T03:57:07;3.67;;;2.75;;
11191;SDS011;5652;48.406;10.820;2024-03-23T03:59:33;3.38;;;2.75;;
11191;SDS011;5652;48.406;10.820;2024-03-23T04:02:00;3.35;;;2.90;;
11191;SDS011;5652;48.406;10.820;2024-03-23T04:04:26;4.82;;;2.75;;
11191;SDS011;5652;48.406;10.820;2024-03-23T04:06:59;3.65;;;2.40;;
11191;SDS011;5652;48.406;10.820;2024-03-23T04:09:25;4.30;;;2.50;;
11191;SDS011;5652;48.406;10.820;2024-03-23T04:11:52;3.53;;;2.47;;
11191;SDS011;5652;48.406;10.820;2024-03-23T04:14:18;3.20;;;2.33;;
11191;SDS011;5652;48.406;10.820;2024-03-23T04:16:45;2.90;;;2.28;;
11191;SDS011;5652;48.406;10.820;2024-03-23T04:19:11;4.38;;;2.50;;
11191;SDS011;5652;48.406;10.820;2024-03-23T04:21:39;4.47;;;2.20;;
11191;SDS011;5652;48.406;10.820;2024-03-23T04:24:06;3.83;;;2.15;;
11191;SDS011;5652;48.406;10.820;2024-03-23T04:26:40;2.50;;;2.15;;
11191;SDS011;5652;48.406;10.820;2024-03-23T04:29:06;2.85;;;2.05;;
11191;SDS011;5652;48.406;10.820;2024-03-23T04:31:33;3.47;;;2.20;;
11191;SDS011;5652;48.406;10.820;2024-03-23T04:33:59;4.60;;;2.17;;
11191;SDS011;5652;48.406;10.820;2024-03-23T04:36:27;2.97;;;2.33;;
11191;SDS011;5652;48.406;10.820;2024-03-23T04:38:53;3.10;;;2.30;;
11191;SDS011;5652;48.406;10.820;2024-03-23T04:41:21;3.05;;;2.15;;
11191;SDS011;5652;48.406;10.820;2024-03-23T04:43:48;4.07;;;2.00;;
11191;SDS011;5652;48.406;10.820;2024-03-23T04:46:15;2.97;;;2.15;;
11191;SDS011;5652;48.406;10.820;2024-03-23T04:48:43;4.00;;;2.20;;
11191;SDS011;5652;48.406;10.820;2024-03-23T04:51:10;4.00;;;1.85;;
11191;SDS011;5652;48.406;10.820;2024-03-23T04:53:38;4.05;;;2.20;;
11191;SDS011;5652;48.406;10.820;2024-03-23T04:56:05;3.05;;;2.20;;
11191;SDS011;5652;48.406;10.820;2024-03-23T04:58:33;2.35;;;2.10;;
11191;SDS011;5652;48.406;10.820;2024-03-23T05:00:59;3.80;;;2.08;;
11191;SDS011;5652;48.406;10.820;2024-03-23T05:03:27;3.13;;;2.25;;
11191;SDS011;5652;48.406;10.820;2024-03-23T05:05:54;2.55;;;2.08;;
11191;SDS011;5652;48.406;10.820;2024-03-23T05:08:21;2.53;;;2.15;;
11191;SDS011;5652;48.406;10.820;2024-03-23T05:10:47;3.00;;;2.10;;
11191;SDS011;5652;48.406;10.820;2024-03-23T05:13:14;2.53;;;2.20;;
11191;SDS011;5652;48.406;10.820;2024-03-23T05:15:41;4.15;;;2.20;;
11191;SDS011;5652;48.406;10.820;2024-03-23T05:18:08;3.50;;;2.30;;
11191;SDS011;5652;48.406;10.820;2024-03-23T05:20:35;3.17;;;2.22;;
11191;SDS011;5652;48.406;10.820;2024-03-23T05:23:02;2.90;;;2.15;;
11191;SDS011;5652;48.406;10.820;2024-03-23T05:25:29;2.55;;;2.20;;
11191;SDS011;5652;48.406;10.820;2024-03-23T05:27:55;4.40;;;2.50;;
11191;SDS011;5652;48.406;10.820;2024-03-23T05:30:22;2.60;;;2.17;;
11191;SDS011;5652;48.406;10.820;2024-03-23T05:32:50;2.85;;;2.28;;
11191;SDS011;5652;48.406;10.820;2024-03-23T05:35:17;2.95;;;2.25;;
11191;SDS011;5652;48.406;10.820;2024-03-23T05:37:43;3.03;;;2.30;;
11191;SDS011;5652;48.406;10.820;2024-03-23T05:40:11;3.20;;;2.20;;
11191;SDS011;5652;48.406;10.820;2024-03-23T05:42:39;3.03;;;2.20;;
11191;SDS011;5652;48.406;10.820;2024-03-23T05:45:06;4.30;;;2.30;;
11191;SDS011;5652;48.406;10.820;2024-03-23T05:47:33;3.25;;;2.20;;
11191;SDS011;5652;48.406;10.820;2024-03-23T05:50:01;3.08;;;2.17;;
11191;SDS011;5652;48.406;10.820;2024-03-23T05:52:27;3.22;;;2.30;;
11191;SDS011;5652;48.406;10.820;2024-03-23T05:54:54;2.90;;;2.03;;
11191;SDS011;5652;48.406;10.820;2024-03-23T05:57:21;2.70;;;2.30;;
11191;SDS011;5652;48.406;10.820;2024-03-23T05:59:48;4.80;;;2.42;;
11191;SDS011;5652;48.406;10.820;2024-03-23T06:02:14;3.97;;;2.38;;
11191;SDS011;5652;48.406;10.820;2024-03-23T06:04:42;3.70;;;2.25;;
11191;SDS011;5652;48.406;10.820;2024-03-23T06:07:09;4.40;;;2.30;;
11191;SDS011;5652;48.406;10.820;2024-03-23T06:09:39;3.65;;;2.20;;
11191;SDS011;5652;48.406;10.820;2024-03-23T06:12:05;3.45;;;2.25;;
11191;SDS011;5652;48.406;10.820;2024-03-23T06:14:32;3.40;;;2.13;;
11191;SDS011;5652;48.406;10.820;2024-03-23T06:16:59;3.72;;;2.00;;
11191;SDS011;5652;48.406;10.820;2024-03-23T06:19:26;3.00;;;1.90;;
11191;SDS011;5652;48.406;10.820;2024-03-23T06:21:52;2.67;;;2.10;;
11191;SDS011;5652;48.406;10.820;2024-03-23T06:24:21;3.45;;;2.00;;
11191;SDS011;5652;48.406;10.820;2024-03-23T06:26:47;3.20;;;2.22;;
11191;SDS011;5652;48.406;10.820;2024-03-23T06:29:15;3.25;;;2.50;;
11191;SDS011;5652;48.406;10.820;2024-03-23T06:31:41;3.33;;;2.28;;
11191;SDS011;5652;48.406;10.820;2024-03-23T06:34:08;2.47;;;2.05;;
11191;SDS011;5652;48.406;10.820;2024-03-23T06:36:34;2.75;;;2.00;;
11191;SDS011;5652;48.406;10.820;2024-03-23T06:39:03;2.80;;;2.10;;
11191;SDS011;5652;48.406;10.820;2024-03-23T06:41:31;3.13;;;2.10;;
11191;SDS011;5652;48.406;10.820;2024-03-23T06:43:58;2.13;;;1.90;;
11191;SDS011;5652;48.406;10.820;2024-03-23T06:46:24;3.08;;;2.08;;
11191;SDS011;5652;48.406;10.820;2024-03-23T06:48:52;3.15;;;2.10;;
11191;SDS011;5652;48.406;10.820;2024-03-23T06:51:18;3.92;;;2.17;;
11191;SDS011;5652;48.406;10.820;2024-03-23T06:53:45;2.65;;;2.10;;
11191;SDS011;5652;48.406;10.820;2024-03-23T06:56:11;3.72;;;2.17;;
11191;SDS011;5652;48.406;10.820;2024-03-23T06:58:39;4.28;;;2.20;;
11191;SDS011;5652;48.406;10.820;2024-03-23T07:01:05;3.22;;;2.50;;
11191;SDS011;5652;48.406;10.820;2024-03-23T07:03:33;3.30;;;2.30;;
11191;SDS011;5652;48.406;10.820;2024-03-23T07:05:59;4.57;;;2.60;;
11191;SDS011;5652;48.406;10.820;2024-03-23T07:08:26;2.50;;;2.05;;
11191;SDS011;5652;48.406;10.820;2024-03-23T07:10:52;3.00;;;2.20;;
11191;SDS011;5652;48.406;10.820;2024-03-23T07:13:19;3.92;;;2.80;;
11191;SDS011;5652;48.406;10.820;2024-03-23T07:15:52;3.70;;;2.70;;
11191;SDS011;5652;48.406;10.820;2024-03-23T07:18:20;3.85;;;2.53;;
11191;SDS011;5652;48.406;10.820;2024-03-23T07:20:51;2.90;;;2.50;;
11191;SDS011;5652;48.406;10.820;2024-03-23T07:23:18;3.83;;;3.15;;
11191;SDS011;5652;48.406;10.820;2024-03-23T07:25:45;3.90;;;3.50;;
11191;SDS011;5652;48.406;10.820;2024-03-23T07:28:12;3.72;;;3.42;;
11191;SDS011;5652;48.406;10.820;2024-03-23T07:30:38;4.65;;;3.47;;
11191;SDS011;5652;48.406;10.820;2024-03-23T07:33:06;4.68;;;3.58;;
11191;SDS011;5652;48.406;10.820;2024-03-23T07:35:33;4.50;;;3.75;;
11191;SDS011;5652;48.406;10.820;2024-03-23T07:38:00;3.90;;;3.50;;
11191;SDS011;5652;48.406;10.820;2024-03-23T07:40:30;4.35;;;3.40;;
11191;SDS011;5652;48.406;10.820;2024-03-23T07:42:57;4.00;;;3.33;;
11191;SDS011;5652;48.406;10.820;2024-03-23T07:45:23;4.15;;;3.40;;
11191;SDS011;5652;48.406;10.820;2024-03-23T07:47:50;4.22;;;3.67;;
11191;SDS011;5652;48.406;10.820;2024-03-23T07:50:18;4.30;;;3.20;;
11191;SDS011;5652;48.406;10.820;2024-03-23T07:52:45;4.82;;;3.80;;
11191;SDS011;5652;48.406;10.820;2024-03-23T07:55:11;4.20;;;3.60;;
11191;SDS011;5652;48.406;10.820;2024-03-23T07:57:38;4.63;;;3.75;;
11191;SDS011;5652;48.406;10.820;2024-03-23T08:00:05;4.60;;;3.80;;
11191;SDS011;5652;48.406;10.820;2024-03-23T08:02:33;5.00;;;4.00;;
11191;SDS011;5652;48.406;10.820;2024-03-23T08:04:59;5.20;;;4.38;;
11191;SDS011;5652;48.406;10.820;2024-03-23T08:07:28;5.65;;;4.25;;
11191;SDS011;5652;48.406;10.820;2024-03-23T08:09:54;6.05;;;4.50;;
11191;SDS011;5652;48.406;10.820;2024-03-23T08:12:21;5.22;;;4.65;;
11191;SDS011;5652;48.406;10.820;2024-03-23T08:14:47;5.03;;;4.50;;
11191;SDS011;5652;48.406;10.820;2024-03-23T08:17:14;5.50;;;4.30;;
11191;SDS011;5652;48.406;10.820;2024-03-23T08:19:41;5.40;;;4.30;;
11191;SDS011;5652;48.406;10.820;2024-03-23T08:22:07;4.82;;;4.25;;
11191;SDS011;5652;48.406;10.820;2024-03-23T08:24:36;4.47;;;3.97;;
11191;SDS011;5652;48.406;10.820;2024-03-23T08:27:02;4.63;;;4.03;;
11191;SDS011;5652;48.406;10.820;2024-03-23T08:29:30;5.20;;;4.00;;
11191;SDS011;5652;48.406;10.820;2024-03-23T08:31:56;4.95;;;3.97;;
11191;SDS011;5652;48.406;10.820;2024-03-23T08:34:23;3.97;;;3.58;;
11191;SDS011;5652;48.406;10.820;2024-03-23T08:36:49;3.50;;;3.10;;
11191;SDS011;5652;48.406;10.820;2024-03-23T08:39:17;4.05;;;3.13;;
11191;SDS011;5652;48.406;10.820;2024-03-23T08:41:44;3.55;;;3.22;;
11191;SDS011;5652;48.406;10.820;2024-03-23T08:44:11;3.50;;;2.50;;
11191;SDS011;5652;48.406;10.820;2024-03-23T08:46:38;3.00;;;2.63;;
11191;SDS011;5652;48.406;10.820;2024-03-23T08:49:05;4.60;;;2.50;;
11191;SDS011;5652;48.406;10.820;2024-03-23T08:51:31;3.28;;;2.20;;
11191;SDS011;5652;48.406;10.820;2024-03-23T08:53:58;2.08;;;1.88;;
11191;SDS011;5652;48.406;10.820;2024-03-23T08:56:24;1.70;;;1.60;;
11191;SDS011;5652;48.406;10.820;2024-03-23T08:58:53;1.40;;;1.30;;
11191;SDS011;5652;48.406;10.820;2024-03-23T09:01:19;1.30;;;1.20;;
11191;SDS011;5652;48.406;10.820;2024-03-23T09:03:46;1.45;;;1.35;;
11191;SDS011;5652;48.406;10.820;2024-03-23T09:06:12;1.17;;;1.08;;
11191;SDS011;5652;48.406;10.820;2024-03-23T09:08:40;1.17;;;1.08;;
11191;SDS011;5652;48.406;10.820;2024-03-23T09:11:07;1.13;;;0.90;;
11191;SDS011;5652;48.406;10.820;2024-03-23T09:13:34;1.20;;;1.10;;
11191;SDS011;5652;48.406;10.820;2024-03-23T09:16:02;1.13;;;1.00;;
11191;SDS011;5652;48.406;10.820;2024-03-23T09:18:31;1.05;;;1.00;;
11191;SDS011;5652;48.406;10.820;2024-03-23T09:20:57;1.17;;;1.08;;
11191;SDS011;5652;48.406;10.820;2024-03-23T09:23:24;1.00;;;0.90;;
11191;SDS011;5652;48.406;10.820;2024-03-23T09:25:50;1.33;;;1.20;;
11191;SDS011;5652;48.406;10.820;2024-03-23T09:28:18;1.20;;;0.90;;
11191;SDS011;5652;48.406;10.820;2024-03-23T09:30:44;1.25;;;1.15;;
11191;SDS011;5652;48.406;10.820;2024-03-23T09:33:12;1.70;;;1.08;;
11191;SDS011;5652;48.406;10.820;2024-03-23T09:35:39;1.45;;;1.08;;
11191;SDS011;5652;48.406;10.820;2024-03-23T09:38:06;1.10;;;1.00;;
11191;SDS011;5652;48.406;10.820;2024-03-23T09:40:32;1.20;;;1.10;;
11191;SDS011;5652;48.406;10.820;2024-03-23T09:42:59;1.30;;;1.03;;
11191;SDS011;5652;48.406;10.820;2024-03-23T09:45:27;1.30;;;1.20;;
11191;SDS011;5652;48.406;10.820;2024-03-23T09:47:54;1.20;;;1.10;;
11191;SDS011;5652;48.406;10.820;2024-03-23T09:50:22;1.60;;;1.10;;
11191;SDS011;5652;48.406;10.820;2024-03-23T09:52:49;1.17;;;1.08;;
11191;SDS011;5652;48.406;10.820;2024-03-23T09:55:15;1.20;;;1.10;;
11191;SDS011;5652;48.406;10.820;2024-03-23T09:57:42;1.13;;;1.00;;
11191;SDS011;5652;48.406;10.820;2024-03-23T10:00:09;0.90;;;0.85;;
11191;SDS011;5652;48.406;10.820;2024-03-23T10:02:37;1.33;;;1.10;;
11191;SDS011;5652;48.406;10.820;2024-03-23T10:05:03;0.85;;;0.85;;
11191;SDS011;5652;48.406;10.820;2024-03-23T10:07:32;0.95;;;0.90;;
11191;SDS011;5652;48.406;10.820;2024-03-23T10:09:58;1.25;;;1.00;;
11191;SDS011;5652;48.406;10.820;2024-03-23T10:12:25;1.20;;;1.10;;
11191;SDS011;5652;48.406;10.820;2024-03-23T10:14:51;0.90;;;0.90;;
11191;SDS011;5652;48.406;10.820;2024-03-23T10:17:19;1.70;;;1.00;;
11191;SDS011;5652;48.406;10.820;2024-03-23T10:19:48;2.25;;;1.00;;
11191;SDS011;5652;48.406;10.820;2024-03-23T10:22:17;1.00;;;1.00;;
11191;SDS011;5652;48.406;10.820;2024-03-23T10:24:44;1.00;;;0.95;;
11191;SDS011;5652;48.406;10.820;2024-03-23T10:27:13;1.10;;;1.00;;
11191;SDS011;5652;48.406;10.820;2024-03-23T10:29:41;1.50;;;1.00;;
11191;SDS011;5652;48.406;10.820;2024-03-23T10:32:08;1.02;;;0.93;;
11191;SDS011;5652;48.406;10.820;2024-03-23T10:34:35;2.03;;;1.10;;
11191;SDS011;5652;48.406;10.820;2024-03-23T10:37:02;1.03;;;0.93;;
11191;SDS011;5652;48.406;10.820;2024-03-23T10:39:30;1.35;;;1.00;;
11191;SDS011;5652;48.406;10.820;2024-03-23T10:42:01;1.60;;;1.00;;
11191;SDS011;5652;48.406;10.820;2024-03-23T10:44:28;1.90;;;1.10;;
11191;SDS011;5652;48.406;10.820;2024-03-23T10:46:56;1.73;;;1.17;;
11191;SDS011;5652;48.406;10.820;2024-03-23T10:49:25;1.10;;;1.00;;
11191;SDS011;5652;48.406;10.820;2024-03-23T10:51:54;1.75;;;1.17;;
11191;SDS011;5652;48.406;10.820;2024-03-23T10:54:20;1.95;;;1.27;;
11191;SDS011;5652;48.406;10.820;2024-03-23T10:56:48;2.80;;;1.40;;
11191;SDS011;5652;48.406;10.820;2024-03-23T10:59:17;2.50;;;1.50;;
11191;SDS011;5652;48.406;10.820;2024-03-23T11:01:54;2.65;;;1.50;;
11191;SDS011;5652;48.406;10.820;2024-03-23T11:04:30;1.73;;;1.30;;
11191;SDS011;5652;48.406;10.820;2024-03-23T11:06:57;2.72;;;1.42;;
11191;SDS011;5652;48.406;10.820;2024-03-23T11:12:29;2.38;;;1.40;;
11191;SDS011;5652;48.406;10.820;2024-03-23T11:15:03;4.22;;;1.65;;
11191;SDS011;5652;48.406;10.820;2024-03-23T11:17:31;2.97;;;1.70;;
11191;SDS011;5652;48.406;10.820;2024-03-23T11:19:57;3.15;;;1.90;;
11191;SDS011;5652;48.406;10.820;2024-03-23T11:22:43;3.08;;;1.90;;
11191;SDS011;5652;48.406;10.820;2024-03-23T11:25:12;3.45;;;2.10;;
11191;SDS011;5652;48.406;10.820;2024-03-23T11:27:39;3.63;;;2.00;;
11191;SDS011;5652;48.406;10.820;2024-03-23T11:30:16;4.47;;;2.05;;
11191;SDS011;5652;48.406;10.820;2024-03-23T11:32:44;3.70;;;2.08;;
11191;SDS011;5652;48.406;10.820;2024-03-23T11:35:10;3.75;;;2.05;;
11191;SDS011;5652;48.406;10.820;2024-03-23T11:37:37;5.13;;;2.03;;
11191;SDS011;5652;48.406;10.820;2024-03-23T11:40:16;3.00;;;1.65;;
11191;SDS011;5652;48.406;10.820;2024-03-23T11:42:44;3.23;;;2.00;;
11191;SDS011;5652;48.406;10.820;2024-03-23T11:45:10;5.00;;;2.30;;
11191;SDS011;5652;48.406;10.820;2024-03-23T11:47:39;6.68;;;2.13;;
11191;SDS011;5652;48.406;10.820;2024-03-23T11:50:05;4.80;;;2.20;;
11191;SDS011;5652;48.406;10.820;2024-03-23T11:52:32;4.45;;;2.10;;
11191;SDS011;5652;48.406;10.820;2024-03-23T11:55:03;5.20;;;2.25;;
11191;SDS011;5652;48.406;10.820;2024-03-23T11:57:30;3.63;;;2.10;;
11191;SDS011;5652;48.406;10.820;2024-03-23T11:59:56;3.38;;;1.88;;
11191;SDS011;5652;48.406;10.820;2024-03-23T12:02:23;3.07;;;2.20;;
11191;SDS011;5652;48.406;10.820;2024-03-23T12:04:51;4.30;;;2.13;;
11191;SDS011;5652;48.406;10.820;2024-03-23T12:07:20;4.82;;;2.35;;
11191;SDS011;5652;48.406;10.820;2024-03-23T12:09:47;4.57;;;2.23;;
11191;SDS011;5652;48.406;10.820;2024-03-23T12:12:14;4.50;;;2.35;;
11191;SDS011;5652;48.406;10.820;2024-03-23T12:14:41;4.80;;;2.40;;
11191;SDS011;5652;48.406;10.820;2024-03-23T12:17:11;4.13;;;2.35;;
11191;SDS011;5652;48.406;10.820;2024-03-23T12:19:38;4.30;;;2.40;;
11191;SDS011;5652;48.406;10.820;2024-03-23T12:22:07;3.58;;;2.13;;
11191;SDS011;5652;48.406;10.820;2024-03-23T12:24:34;3.75;;;2.00;;
11191;SDS011;5652;48.406;10.820;2024-03-23T12:27:02;3.42;;;1.90;;
11191;SDS011;5652;48.406;10.820;2024-03-23T12:29:28;4.32;;;2.03;;
11191;SDS011;5652;48.406;10.820;2024-03-23T12:31:56;3.50;;;2.03;;
11191;SDS011;5652;48.406;10.820;2024-03-23T12:34:22;4.40;;;2.10;;
11191;SDS011;5652;48.406;10.820;2024-03-23T12:36:49;4.28;;;2.35;;
11191;SDS011;5652;48.406;10.820;2024-03-23T12:39:17;4.00;;;2.20;;
11191;SDS011;5652;48.406;10.820;2024-03-23T12:41:45;3.65;;;2.13;;
11191;SDS011;5652;48.406;10.820;2024-03-23T12:44:11;4.80;;;2.67;;
11191;SDS011;5652;48.406;10.820;2024-03-23T12:46:40;5.53;;;2.30;;
11191;SDS011;5652;48.406;10.820;2024-03-23T12:49:06;3.97;;;1.90;;
11191;SDS011;5652;48.406;10.820;2024-03-23T12:51:33;3.58;;;2.00;;
11191;SDS011;5652;48.406;10.820;2024-03-23T12:53:59;6.32;;;2.30;;
11191;SDS011;5652;48.406;10.820;2024-03-23T12:56:28;4.57;;;2.08;;
11191;SDS011;5652;48.406;10.820;2024-03-23T12:58:54;5.53;;;2.00;;
11191;SDS011;5652;48.406;10.820;2024-03-23T13:01:22;5.60;;;2.30;;
11191;SDS011;5652;48.406;10.820;2024-03-23T13:03:48;3.47;;;2.00;;
11191;SDS011;5652;48.406;10.820;2024-03-23T13:06:15;5.25;;;2.63;;
11191;SDS011;5652;48.406;10.820;2024-03-23T13:08:42;5.50;;;2.42;;
11191;SDS011;5652;48.406;10.820;2024-03-23T13:11:10;4.85;;;2.50;;
11191;SDS011;5652;48.406;10.820;2024-03-23T13:13:38;5.15;;;2.65;;
11191;SDS011;5652;48.406;10.820;2024-03-23T13:16:07;4.75;;;2.20;;
11191;SDS011;5652;48.406;10.820;2024-03-23T13:18:33;4.67;;;2.03;;
11191;SDS011;5652;48.406;10.820;2024-03-23T13:21:00;3.80;;;1.73;;
11191;SDS011;5652;48.406;10.820;2024-03-23T13:23:27;3.73;;;1.90;;
11191;SDS011;5652;48.406;10.820;2024-03-23T13:25:55;3.17;;;1.58;;
11191;SDS011;5652;48.406;10.820;2024-03-23T13:28:22;2.70;;;1.60;;
11191;SDS011;5652;48.406;10.820;2024-03-23T13:30:51;3.90;;;1.60;;
11191;SDS011;5652;48.406;10.820;2024-03-23T13:33:17;2.75;;;1.60;;
11191;SDS011;5652;48.406;10.820;2024-03-23T13:35:50;3.70;;;1.52;;
11191;SDS011;5652;48.406;10.820;2024-03-23T13:38:17;4.43;;;1.70;;
11191;SDS011;5652;48.406;10.820;2024-03-23T13:40:52;3.10;;;1.52;;
11191;SDS011;5652;48.406;10.820;2024-03-23T13:43:20;3.00;;;1.50;;
11191;SDS011;5652;48.406;10.820;2024-03-23T13:45:46;3.58;;;1.58;;
11191;SDS011;5652;48.406;10.820;2024-03-23T13:48:15;3.05;;;1.70;;
11191;SDS011;5652;48.406;10.820;2024-03-23T13:50:41;4.85;;;2.08;;
11191;SDS011;5652;48.406;10.820;2024-03-23T13:53:08;4.00;;;1.80;;
11191;SDS011;5652;48.406;10.820;2024-03-23T13:55:34;3.50;;;1.70;;
11191;SDS011;5652;48.406;10.820;2024-03-23T13:58:02;3.97;;;1.70;;
11191;SDS011;5652;48.406;10.820;2024-03-23T14:00:29;4.25;;;1.67;;
11191;SDS011;5652;48.406;10.820;2024-03-23T14:02:57;3.13;;;1.50;;
11191;SDS011;5652;48.406;10.820;2024-03-23T14:05:25;6.40;;;1.90;;
11191;SDS011;5652;48.406;10.820;2024-03-23T14:07:52;3.55;;;1.85;;
11191;SDS011;5652;48.406;10.820;2024-03-23T14:10:18;4.50;;;1.87;;
11191;SDS011;5652;48.406;10.820;2024-03-23T14:12:45;4.10;;;1.85;;
11191;SDS011;5652;48.406;10.820;2024-03-23T14:15:11;4.75;;;1.70;;
11191;SDS011;5652;48.406;10.820;2024-03-23T14:17:38;4.07;;;2.08;;
11191;SDS011;5652;48.406;10.820;2024-03-23T14:20:05;3.80;;;1.77;;
11191;SDS011;5652;48.406;10.820;2024-03-23T14:22:35;2.78;;;1.58;;
11191;SDS011;5652;48.406;10.820;2024-03-23T14:25:01;4.38;;;1.73;;
11191;SDS011;5652;48.406;10.820;2024-03-23T14:27:29;3.40;;;1.75;;
11191;SDS011;5652;48.406;10.820;2024-03-23T14:29:55;3.70;;;1.75;;
11191;SDS011;5652;48.406;10.820;2024-03-23T14:32:22;4.22;;;1.70;;
11191;SDS011;5652;48.406;10.820;2024-03-23T14:34:48;4.22;;;1.85;;
11191;SDS011;5652;48.406;10.820;2024-03-23T14:37:17;2.35;;;1.40;;
11191;SDS011;5652;48.406;10.820;2024-03-23T14:39:44;4.07;;;1.95;;
11191;SDS011;5652;48.406;10.820;2024-03-23T14:42:11;3.33;;;1.60;;
11191;SDS011;5652;48.406;10.820;2024-03-23T14:44:37;3.28;;;1.73;;
11191;SDS011;5652;48.406;10.820;2024-03-23T14:47:04;4.57;;;1.95;;
11191;SDS011;5652;48.406;10.820;2024-03-23T14:49:31;4.88;;;1.95;;
11191;SDS011;5652;48.406;10.820;2024-03-23T14:51:58;2.83;;;1.60;;
11191;SDS011;5652;48.406;10.820;2024-03-23T14:54:24;3.60;;;1.90;;
11191;SDS011;5652;48.406;10.820;2024-03-23T14:56:53;4.50;;;2.03;;
11191;SDS011;5652;48.406;10.820;2024-03-23T14:59:19;3.83;;;1.80;;
11191;SDS011;5652;48.406;10.820;2024-03-23T15:01:46;5.88;;;2.03;;
11191;SDS011;5652;48.406;10.820;2024-03-23T15:04:12;5.90;;;2.00;;
11191;SDS011;5652;48.406;10.820;2024-03-23T15:06:39;5.10;;;2.00;;
11191;SDS011;5652;48.406;10.820;2024-03-23T15:09:07;4.65;;;2.20;;
11191;SDS011;5652;48.406;10.820;2024-03-23T15:11:36;5.30;;;2.17;;
11191;SDS011;5652;48.406;10.820;2024-03-23T15:14:04;5.32;;;2.10;;
11191;SDS011;5652;48.406;10.820;2024-03-23T15:16:32;4.70;;;2.30;;
11191;SDS011;5652;48.406;10.820;2024-03-23T15:18:58;4.95;;;2.03;;
11191;SDS011;5652;48.406;10.820;2024-03-23T15:21:25;5.43;;;2.13;;
11191;SDS011;5652;48.406;10.820;2024-03-23T15:23:51;4.83;;;2.17;;
11191;SDS011;5652;48.406;10.820;2024-03-23T15:26:18;3.72;;;1.90;;
11191;SDS011;5652;48.406;10.820;2024-03-23T15:28:47;4.15;;;2.20;;
11191;SDS011;5652;48.406;10.820;2024-03-23T15:31:36;8.02;;;2.42;;
11191;SDS011;5652;48.406;10.820;2024-03-23T15:34:02;3.23;;;1.83;;
11191;SDS011;5652;48.406;10.820;2024-03-23T15:36:29;3.97;;;1.85;;
11191;SDS011;5652;48.406;10.820;2024-03-23T15:38:56;2.88;;;1.33;;
11191;SDS011;5652;48.406;10.820;2024-03-23T15:41:23;4.15;;;1.70;;
11191;SDS011;5652;48.406;10.820;2024-03-23T15:43:49;3.83;;;1.80;;